createdAt,value
2022-08-26T00:00:02.152Z,1009.782
2022-08-26T00:07:02.049Z,1009.652
2022-08-26T00:14:01.501Z,1009.652
2022-08-26T00:21:01.588Z,1009.582
2022-08-26T00:28:01.717Z,1009.582
2022-08-26T00:35:02.417Z,1009.925
2022-08-26T00:42:01.415Z,1009.925
2022-08-26T00:49:01.686Z,1009.89
2022-08-26T00:56:02.050Z,1009.89
2022-08-26T01:00:01.649Z,1009.925
2022-08-26T01:07:01.568Z,1009.925
2022-08-26T01:14:01.471Z,1010.193
2022-08-26T01:21:02.288Z,1010.193
2022-08-26T01:28:01.377Z,1010.223
2022-08-26T01:35:01.718Z,1010.247
2022-08-26T01:42:03.054Z,1010.247
2022-08-26T01:49:02.465Z,1010.424
2022-08-26T01:56:01.821Z,1010.424
2022-08-26T02:00:01.731Z,1010.424
2022-08-26T02:07:01.683Z,1010.455
2022-08-26T02:14:02.279Z,1010.67
2022-08-26T02:21:02.165Z,1010.67
2022-08-26T02:28:01.566Z,1010.755
2022-08-26T02:35:02.420Z,1010.755
2022-08-26T02:42:01.416Z,1010.836
2022-08-26T02:49:01.449Z,1010.836
2022-08-26T02:56:01.802Z,1010.828
2022-08-26T03:00:01.783Z,1010.828
2022-08-26T03:07:02.133Z,1010.836
2022-08-26T03:14:03.682Z,1010.836
2022-08-26T03:21:01.936Z,1010.835
2022-08-26T03:28:01.967Z,1010.835
2022-08-26T03:35:02.161Z,1010.728
2022-08-26T03:42:02.323Z,1010.728
2022-08-26T03:49:01.508Z,1010.809
2022-08-26T03:56:02.259Z,1010.809
2022-08-26T04:00:01.789Z,1010.731
2022-08-26T04:07:02.111Z,1010.731
2022-08-26T04:14:01.469Z,1010.861
2022-08-26T04:21:02.195Z,1010.861
2022-08-26T04:28:01.729Z,1010.901
2022-08-26T04:35:02.072Z,1010.901
2022-08-26T04:42:02.195Z,1010.946
2022-08-26T04:49:02.000Z,1011.03
2022-08-26T04:56:03.095Z,1011.03
2022-08-26T05:00:01.956Z,1011.03
2022-08-26T05:07:02.684Z,1010.995
2022-08-26T05:14:02.561Z,1011.087
2022-08-26T05:21:01.623Z,1011.087
2022-08-26T05:28:01.583Z,1011.228
2022-08-26T05:35:02.018Z,1011.228
2022-08-26T05:42:01.588Z,1011.13
2022-08-26T05:49:01.334Z,1011.13
2022-08-26T05:56:02.178Z,1011.168
2022-08-26T06:00:01.782Z,1011.168
2022-08-26T06:07:01.359Z,1011.286
2022-08-26T06:14:03.783Z,1011.286
2022-08-26T06:21:01.475Z,1011.333
2022-08-26T06:28:01.965Z,1011.333
2022-08-26T06:35:02.102Z,1011.429
2022-08-26T06:42:02.663Z,1011.429
2022-08-26T06:49:01.927Z,1011.417
2022-08-26T06:56:02.124Z,1011.417
2022-08-26T07:00:01.639Z,1011.542
2022-08-26T07:07:01.962Z,1011.542
2022-08-26T07:14:02.054Z,1011.597
2022-08-26T07:21:02.277Z,1011.597
2022-08-26T07:28:01.387Z,1011.617
2022-08-26T07:35:01.557Z,1011.617
2022-08-26T07:42:01.621Z,1011.777
2022-08-26T07:49:02.162Z,1011.921
2022-08-26T07:56:02.256Z,1011.921
2022-08-26T08:00:01.894Z,1011.921
2022-08-26T08:07:02.306Z,1012.056
2022-08-26T08:14:01.599Z,1011.99
2022-08-26T08:21:21.200Z,1011.99
2022-08-26T08:28:02.227Z,1012.035
2022-08-26T08:35:01.874Z,1012.035
2022-08-26T08:42:02.194Z,1012.119
2022-08-26T08:49:01.900Z,1012.119
2022-08-26T08:56:01.861Z,1012.2
2022-08-26T09:00:02.471Z,1012.2
2022-08-26T09:07:01.441Z,1012.255
2022-08-26T09:14:01.461Z,1012.255
2022-08-26T09:21:01.969Z,1012.233
2022-08-26T09:28:01.396Z,1012.233
2022-08-26T09:35:02.132Z,1012.311
2022-08-26T09:42:01.825Z,1012.311
2022-08-26T09:49:02.241Z,1012.379
2022-08-26T09:56:01.870Z,1012.379
2022-08-26T10:00:01.613Z,1012.309
2022-08-26T10:07:01.716Z,1012.309
2022-08-26T10:14:02.065Z,1012.218
2022-08-26T10:21:01.463Z,1012.218
2022-08-26T10:28:01.847Z,1012.124
2022-08-26T10:35:01.829Z,1012.124
2022-08-26T10:42:01.834Z,1012.182
2022-08-26T10:49:03.193Z,1012.036
2022-08-26T10:56:01.503Z,1012.036
2022-08-26T11:00:02.146Z,1012.036
2022-08-26T11:07:01.848Z,1012.158
2022-08-26T11:14:01.967Z,1012.158
2022-08-26T11:21:01.351Z,1012.021
2022-08-26T11:28:01.568Z,1011.879
2022-08-26T11:35:02.315Z,1011.879
2022-08-26T11:42:01.819Z,1011.86
2022-08-26T11:49:01.508Z,1011.86
2022-08-26T11:56:01.728Z,1011.917
2022-08-26T12:00:02.401Z,1011.917
2022-08-26T12:07:02.322Z,1011.866
2022-08-26T12:14:01.914Z,1011.866
2022-08-26T12:21:01.511Z,1011.844
2022-08-26T12:28:01.516Z,1011.844
2022-08-26T12:42:01.786Z,1011.724
2022-08-26T12:49:02.331Z,1012.129
2022-08-26T12:56:02.009Z,1012.129
2022-08-26T13:00:01.504Z,1011.879
2022-08-26T13:07:01.861Z,1011.879
2022-08-26T13:14:02.307Z,1011.774
2022-08-26T13:21:01.381Z,1011.774
2022-08-26T13:28:01.609Z,1011.793
2022-08-26T13:35:05.782Z,1011.793
2022-08-26T13:42:01.472Z,1011.81
2022-08-26T13:49:01.422Z,1011.485
2022-08-26T13:56:01.730Z,1011.485
2022-08-26T14:00:02.400Z,1011.485
2022-08-26T14:07:02.184Z,1011.768
2022-08-26T14:14:01.685Z,1011.768
2022-08-26T14:21:01.445Z,1011.785
2022-08-26T14:28:02.213Z,1011.701
2022-08-26T14:35:01.872Z,1011.701
2022-08-26T14:42:01.587Z,1011.736
2022-08-26T14:49:03.516Z,1011.736
2022-08-26T14:56:01.750Z,1011.554
2022-08-26T15:00:02.441Z,1011.554
2022-08-26T15:07:01.895Z,1011.491
2022-08-26T15:14:01.966Z,1011.491
2022-08-26T15:21:01.999Z,1011.664
2022-08-26T15:28:02.216Z,1011.664
2022-08-26T15:35:05.531Z,1011.675
2022-08-26T15:42:01.360Z,1011.675
2022-08-26T15:49:01.508Z,1011.48
2022-08-26T15:56:02.020Z,1011.48
2022-08-26T16:00:01.907Z,1011.614
2022-08-26T16:07:02.247Z,1011.614
2022-08-26T16:14:01.768Z,1011.458
2022-08-26T16:21:13.516Z,1011.458
2022-08-26T16:28:01.562Z,1011.518
2022-08-26T16:35:02.259Z,1011.518
2022-08-26T16:42:01.881Z,1011.437
2022-08-26T16:49:02.327Z,1011.424
2022-08-26T16:56:02.094Z,1011.424
2022-08-26T17:00:01.567Z,1011.424
2022-08-26T17:07:02.026Z,1011.848
2022-08-26T17:14:02.197Z,1011.848
2022-08-26T17:21:02.201Z,1011.868
2022-08-26T17:28:02.014Z,1011.799
2022-08-26T17:35:02.044Z,1011.799
2022-08-26T17:42:01.641Z,1011.965
2022-08-26T17:49:01.510Z,1011.965
2022-08-26T17:56:02.182Z,1011.975
2022-08-26T18:00:01.826Z,1011.975
2022-08-26T18:07:02.224Z,1011.94
2022-08-26T18:14:01.357Z,1011.94
2022-08-26T18:21:02.090Z,1012.033
2022-08-26T18:28:01.824Z,1012.033
2022-08-26T18:35:02.330Z,1012.227
2022-08-26T18:42:01.364Z,1012.227
2022-08-26T18:49:02.143Z,1012.193
2022-08-26T18:56:02.086Z,1012.193
2022-08-26T19:00:01.688Z,1012.202
2022-08-26T19:07:01.769Z,1012.202
2022-08-26T19:14:01.864Z,1012.254
2022-08-26T19:21:01.371Z,1012.254
2022-08-26T19:28:02.292Z,1012.27
2022-08-26T19:35:02.011Z,1012.27
2022-08-26T19:42:01.766Z,1012.201
2022-08-26T19:49:01.557Z,1012.361
2022-08-26T19:56:02.322Z,1012.361
2022-08-26T20:00:01.866Z,1012.361
2022-08-26T20:07:01.918Z,1012.535
2022-08-26T20:14:01.942Z,1012.535
2022-08-26T20:21:01.938Z,1012.292
2022-08-26T20:28:01.691Z,1012.405
2022-08-26T20:35:01.578Z,1012.405
2022-08-26T20:42:02.155Z,1012.745
2022-08-26T20:49:01.965Z,1012.745
2022-08-26T20:56:02.292Z,1012.819
2022-08-26T21:00:01.840Z,1012.819
2022-08-26T21:07:01.492Z,1012.714
2022-08-26T21:14:06.789Z,1012.714
2022-08-26T21:21:01.629Z,1012.587
2022-08-26T21:28:01.724Z,1012.587
2022-08-26T21:35:02.178Z,1012.776
2022-08-26T21:42:01.535Z,1012.776
2022-08-26T21:49:01.527Z,1012.76
2022-08-26T21:56:01.504Z,1012.76
2022-08-26T22:00:04.575Z,1012.933
2022-08-26T22:07:01.414Z,1012.933
2022-08-26T22:14:02.291Z,1012.919
2022-08-26T22:21:01.919Z,1012.919
2022-08-26T22:28:01.779Z,1012.924
2022-08-26T22:35:02.403Z,1012.924
2022-08-26T22:42:01.483Z,1013.095
2022-08-26T22:49:01.731Z,1013.114
2022-08-26T22:56:02.280Z,1013.114
2022-08-26T23:00:01.703Z,1013.114
2022-08-26T23:07:01.619Z,1013.045
2022-08-26T23:14:06.188Z,1013.045
2022-08-26T23:21:02.082Z,1013.086
2022-08-26T23:28:01.611Z,1013.157
2022-08-26T23:35:02.559Z,1013.157
2022-08-26T23:42:01.885Z,1013.039
2022-08-26T23:49:01.577Z,1013.039
2022-08-26T23:56:01.418Z,1012.967
